createdAt,value
2019-04-25T00:02:02.037Z,100063.07
2019-04-25T00:04:31.570Z,100066.08
2019-04-25T00:07:02.221Z,100067.32
2019-04-25T00:09:33.304Z,100069.19
2019-04-25T00:12:02.512Z,100078.95
2019-04-25T00:14:32.057Z,100092.34
2019-04-25T00:17:01.798Z,100087.48
2019-04-25T00:19:31.699Z,100096.27
2019-04-25T00:22:02.596Z,100098.24
2019-04-25T00:24:43.269Z,100102.60
2019-04-25T00:27:13.267Z,100092.84
2019-04-25T00:29:43.938Z,100098.70
2019-04-25T00:32:13.515Z,100100.55
2019-04-25T00:34:44.231Z,100103.20
2019-04-25T00:37:14.076Z,100105.72
2019-04-25T00:39:45.042Z,100102.45
2019-04-25T00:42:14.227Z,100099.80
2019-04-25T00:44:44.841Z,100124.64
2019-04-25T00:47:14.476Z,100131.16
2019-04-25T00:49:44.878Z,100135.01
2019-04-25T00:52:14.485Z,100142.58
2019-04-25T00:54:44.193Z,100153.78
2019-04-25T00:57:14.030Z,100154.28
2019-04-25T00:59:55.079Z,100157.72
2019-04-25T01:02:28.983Z,100159.84
2019-04-25T01:04:58.249Z,100162.95
2019-04-25T01:07:27.561Z,100163.41
2019-04-25T01:09:56.885Z,100175.70
2019-04-25T01:12:26.201Z,100166.45
2019-04-25T01:14:55.491Z,100160.02
2019-04-25T01:17:24.783Z,100158.19
2019-04-25T01:19:56.938Z,100170.07
2019-04-25T01:22:25.020Z,100161.21
2019-04-25T01:24:55.170Z,100169.14
2019-04-25T01:27:25.173Z,100161.08
2019-04-25T01:29:55.300Z,100153.20
2019-04-25T01:32:26.463Z,100145.98
2019-04-25T01:35:00.301Z,100147.48
2019-04-25T01:37:30.802Z,100145.78
2019-04-25T01:40:10.636Z,100140.47
2019-04-25T01:42:54.508Z,100145.34
2019-04-25T01:45:25.704Z,100142.64
2019-04-25T01:47:56.287Z,100139.81
2019-04-25T01:50:25.654Z,100137.33
2019-04-25T01:52:55.660Z,100135.14
2019-04-25T01:55:25.132Z,100118.09
2019-04-25T01:57:55.157Z,100118.09
2019-04-25T02:00:35.671Z,100105.89
2019-04-25T02:03:05.463Z,100106.00
2019-04-25T02:05:34.685Z,100123.31
2019-04-25T02:08:06.948Z,100116.62
2019-04-25T02:10:34.908Z,100111.16
2019-04-25T02:13:08.597Z,100112.55
2019-04-25T02:15:37.895Z,100110.86
2019-04-25T02:18:07.199Z,100111.76
2019-04-25T02:20:36.585Z,100110.20
2019-04-25T02:23:05.890Z,100108.17
2019-04-25T02:25:35.095Z,100109.22
2019-04-25T02:28:06.257Z,100103.84
2019-04-25T02:30:35.852Z,100106.44
2019-04-25T02:33:08.825Z,100105.23
2019-04-25T02:35:36.088Z,100115.73
2019-04-25T02:38:08.920Z,100115.66
2019-04-25T02:40:36.295Z,100114.11
2019-04-25T02:43:08.035Z,100116.81
2019-04-25T02:45:38.205Z,100106.52
2019-04-25T02:48:25.020Z,100105.98
2019-04-25T02:51:10.603Z,100106.22
2019-04-25T02:53:44.475Z,100088.33
2019-04-25T02:56:29.403Z,100096.59
2019-04-25T02:58:44.268Z,100088.78
2019-04-25T03:01:22.277Z,100088.78
2019-04-25T03:03:47.368Z,100086.50
2019-04-25T03:06:16.759Z,100087.15
2019-04-25T03:08:46.051Z,100063.57
2019-04-25T03:11:15.469Z,100078.58
2019-04-25T03:13:44.858Z,100084.51
2019-04-25T03:16:14.269Z,100071.87
2019-04-25T03:18:54.567Z,100072.22
2019-04-25T03:21:28.223Z,100067.55
2019-04-25T03:23:58.447Z,100071.33
2019-04-25T03:26:37.973Z,100051.19
2019-04-25T03:28:59.812Z,100051.19
2019-04-25T03:31:29.015Z,100054.67
2019-04-25T03:33:58.624Z,100070.34
2019-04-25T03:36:27.920Z,100058.95
2019-04-25T03:38:57.165Z,100068.69
2019-04-25T03:41:26.424Z,100066.80
2019-04-25T03:43:55.641Z,100075.84
2019-04-25T03:46:24.924Z,100070.09
2019-04-25T03:48:54.114Z,100070.09
2019-04-25T03:51:24.013Z,100070.83
2019-04-25T03:53:53.635Z,100074.81
2019-04-25T03:56:22.850Z,100084.52
2019-04-25T03:58:52.076Z,100087.28
2019-04-25T04:01:21.247Z,100088.53
2019-04-25T04:03:50.456Z,100088.53
2019-04-25T04:06:19.649Z,100089.41
2019-04-25T04:08:48.931Z,100089.41
2019-04-25T04:11:18.136Z,100093.33
2019-04-25T04:13:47.330Z,100084.27
2019-04-25T04:16:18.198Z,100080.05
2019-04-25T04:18:49.341Z,100080.05
2019-04-25T04:21:33.283Z,100082.09
2019-04-25T04:24:14.116Z,100082.09
2019-04-25T04:26:45.800Z,100082.09
2019-04-25T04:29:15.274Z,100086.63
2019-04-25T04:31:44.518Z,100086.63
2019-04-25T04:34:33.638Z,100096.92
2019-04-25T04:37:03.731Z,100087.48
2019-04-25T04:39:33.830Z,100087.08
2019-04-25T04:42:03.829Z,100086.19
2019-04-25T04:44:34.310Z,100077.38
2019-04-25T04:47:04.114Z,100086.03
2019-04-25T04:49:34.121Z,100111.75
2019-04-25T04:52:06.142Z,100085.97
2019-04-25T04:54:34.596Z,100090.52
2019-04-25T04:57:16.627Z,100087.47
2019-04-25T04:59:34.754Z,100087.47
2019-04-25T05:02:12.273Z,100074.54
2019-04-25T05:04:55.572Z,100078.19
2019-04-25T05:07:38.498Z,100078.19
2019-04-25T05:10:08.099Z,100082.22
2019-04-25T05:12:37.307Z,100079.69
2019-04-25T05:15:08.244Z,100082.42
2019-04-25T05:17:40.552Z,100082.42
2019-04-25T05:20:10.128Z,100086.19
2019-04-25T05:22:39.303Z,100096.82
2019-04-25T05:25:09.052Z,100095.80
2019-04-25T05:27:56.901Z,100091.02
2019-04-25T05:30:14.367Z,100095.39
2019-04-25T05:32:44.206Z,100107.09
2019-04-25T05:35:14.955Z,100107.09
2019-04-25T05:37:44.488Z,100104.20
2019-04-25T05:40:15.796Z,100097.30
2019-04-25T05:42:46.520Z,100097.30
2019-04-25T05:45:18.572Z,100104.25
2019-04-25T05:47:47.938Z,100101.07
2019-04-25T05:50:17.874Z,100101.06
2019-04-25T05:52:47.108Z,100094.34
2019-04-25T05:55:18.947Z,100092.41
2019-04-25T05:57:50.007Z,100093.44
2019-04-25T06:00:19.049Z,100096.50
2019-04-25T06:02:48.268Z,100108.77
2019-04-25T06:05:17.517Z,100115.54
2019-04-25T06:07:46.698Z,100114.55
2019-04-25T06:10:18.115Z,100110.52
2019-04-25T06:12:48.977Z,100121.27
2019-04-25T06:15:20.009Z,100116.10
2019-04-25T06:17:50.867Z,100121.11
2019-04-25T06:20:24.655Z,100111.61
2019-04-25T06:22:56.299Z,100124.94
2019-04-25T06:25:30.527Z,100129.97
2019-04-25T06:28:05.390Z,100129.97
2019-04-25T06:30:35.453Z,100135.44
2019-04-25T06:33:04.800Z,100145.23
2019-04-25T06:35:35.867Z,100137.01
2019-04-25T06:38:05.199Z,100128.45
2019-04-25T06:40:34.614Z,100130.50
2019-04-25T06:43:04.147Z,100147.80
2019-04-25T06:45:37.752Z,100162.53
2019-04-25T06:48:11.232Z,100172.55
2019-04-25T06:50:40.353Z,100170.66
2019-04-25T06:53:09.566Z,100173.16
2019-04-25T06:55:38.838Z,100176.09
2019-04-25T06:58:11.721Z,100169.97
2019-04-25T07:00:42.651Z,100172.96
2019-04-25T07:03:10.166Z,100165.70
2019-04-25T07:05:40.684Z,100161.51
2019-04-25T07:08:10.061Z,100168.63
2019-04-25T07:10:39.212Z,100180.43
2019-04-25T07:13:08.403Z,100192.42
2019-04-25T07:15:37.623Z,100197.80
2019-04-25T07:18:06.934Z,100198.70
2019-04-25T07:20:36.138Z,100210.28
2019-04-25T07:23:05.487Z,100217.41
2019-04-25T07:25:36.709Z,100209.63
2019-04-25T07:28:28.526Z,100209.59
2019-04-25T07:31:09.211Z,100204.08
2019-04-25T07:33:40.167Z,100201.18
2019-04-25T07:36:09.483Z,100203.37
2019-04-25T07:38:38.676Z,100215.16
2019-04-25T07:41:08.038Z,100212.53
2019-04-25T07:43:37.275Z,100227.91
2019-04-25T07:46:06.489Z,100229.84
2019-04-25T07:48:37.096Z,100227.63
2019-04-25T07:51:06.679Z,100231.22
2019-04-25T07:53:36.166Z,100234.37
2019-04-25T07:56:05.518Z,100230.47
2019-04-25T07:58:49.594Z,100230.92
2019-04-25T08:01:14.154Z,100226.33
2019-04-25T08:03:43.952Z,100236.20
2019-04-25T08:06:13.700Z,100240.39
2019-04-25T08:08:43.622Z,100247.30
2019-04-25T08:11:14.043Z,100244.91
2019-04-25T08:13:45.114Z,100243.02
2019-04-25T08:16:19.653Z,100250.13
2019-04-25T08:18:49.812Z,100243.35
2019-04-25T08:21:19.075Z,100242.70
2019-04-25T08:23:49.583Z,100235.88
2019-04-25T08:26:18.901Z,100236.56
2019-04-25T08:28:54.390Z,100230.20
2019-04-25T08:31:19.042Z,100218.48
2019-04-25T08:33:48.330Z,100223.12
2019-04-25T08:36:17.539Z,100210.47
2019-04-25T08:38:46.770Z,100206.22
2019-04-25T08:41:16.020Z,100206.22
2019-04-25T08:43:45.561Z,100203.49
2019-04-25T08:46:14.744Z,100202.18
2019-04-25T08:49:02.416Z,100212.48
2019-04-25T08:51:40.124Z,100209.81
2019-04-25T08:54:11.150Z,100224.57
2019-04-25T08:56:40.383Z,100223.31
2019-04-25T08:59:17.314Z,100204.59
2019-04-25T09:01:50.595Z,100213.19
2019-04-25T09:04:27.196Z,100217.62
2019-04-25T09:06:56.470Z,100220.58
2019-04-25T09:09:26.088Z,100224.28
2019-04-25T09:11:55.471Z,100219.45
2019-04-25T09:14:24.675Z,100218.84
2019-04-25T09:16:53.958Z,100219.87
2019-04-25T09:19:24.145Z,100217.81
2019-04-25T09:21:54.297Z,100219.44
2019-04-25T09:24:24.597Z,100213.92
2019-04-25T09:26:54.160Z,100217.59
2019-04-25T09:29:23.583Z,100227.31
2019-04-25T09:31:53.736Z,100220.94
2019-04-25T09:34:23.792Z,100219.14
2019-04-25T09:36:53.600Z,100212.03
2019-04-25T09:39:24.541Z,100212.17
2019-04-25T09:41:53.784Z,100206.16
2019-04-25T09:44:24.644Z,100205.66
2019-04-25T09:46:54.436Z,100195.98
2019-04-25T09:49:27.893Z,100194.02
2019-04-25T09:52:13.608Z,100201.11
2019-04-25T09:54:45.196Z,100202.11
2019-04-25T09:57:28.024Z,100213.13
2019-04-25T09:59:57.256Z,100208.12
2019-04-25T10:02:26.696Z,100213.39
2019-04-25T10:04:55.989Z,100206.02
2019-04-25T10:07:25.273Z,100197.20
2019-04-25T10:09:54.781Z,100199.78
2019-04-25T10:12:23.965Z,100196.34
2019-04-25T10:14:56.305Z,100196.43
2019-04-25T10:17:25.561Z,100194.21
2019-04-25T10:19:55.040Z,100192.84
2019-04-25T10:22:24.328Z,100179.30
2019-04-25T10:25:00.424Z,100181.50
2019-04-25T10:27:24.607Z,100192.70
2019-04-25T10:29:57.069Z,100195.63
2019-04-25T10:32:24.954Z,100195.02
2019-04-25T10:34:54.356Z,100199.56
2019-04-25T10:37:23.620Z,100206.37
2019-04-25T10:39:55.251Z,100215.33
2019-04-25T10:42:23.997Z,100209.64
2019-04-25T10:44:54.485Z,100212.35
2019-04-25T10:47:24.240Z,100216.13
2019-04-25T10:49:55.467Z,100217.11
2019-04-25T10:52:24.651Z,100207.80
2019-04-25T10:54:54.273Z,100206.70
2019-04-25T10:57:24.903Z,100211.32
2019-04-25T11:00:05.892Z,100192.24
2019-04-25T11:02:25.884Z,100201.52
2019-04-25T11:04:56.745Z,100196.71
2019-04-25T11:07:26.020Z,100194.16
2019-04-25T11:09:55.310Z,100212.45
2019-04-25T11:12:24.926Z,100204.38
2019-04-25T11:14:55.941Z,100203.75
2019-04-25T11:17:25.137Z,100208.52
2019-04-25T11:19:55.469Z,100204.53
2019-04-25T11:22:24.685Z,100212.14
2019-04-25T11:24:53.885Z,100212.45
2019-04-25T11:27:23.967Z,100213.27
2019-04-25T11:30:08.013Z,100226.07
2019-04-25T11:32:26.980Z,100187.19
2019-04-25T11:34:57.273Z,100217.58
2019-04-25T11:37:28.134Z,100214.25
2019-04-25T11:39:58.980Z,100208.11
2019-04-25T11:42:28.704Z,100214.71
2019-04-25T11:44:58.000Z,100213.48
2019-04-25T11:47:27.287Z,100213.45
2019-04-25T11:49:56.490Z,100208.67
2019-04-25T11:52:28.178Z,100209.23
2019-04-25T11:54:56.844Z,100194.44
2019-04-25T11:57:26.032Z,100202.84
2019-04-25T11:59:55.826Z,100196.97
2019-04-25T12:02:26.070Z,100194.22
2019-04-25T12:04:55.373Z,100196.66
2019-04-25T12:07:24.679Z,100187.41
2019-04-25T12:09:54.562Z,100197.43
2019-04-25T12:12:24.801Z,100199.76
2019-04-25T12:14:55.391Z,100205.17
2019-04-25T12:17:24.656Z,100203.94
2019-04-25T12:19:54.986Z,100203.56
2019-04-25T12:22:24.985Z,100185.52
2019-04-25T12:24:55.606Z,100200.00
2019-04-25T12:27:25.521Z,100208.47
2019-04-25T12:29:54.718Z,100203.09
2019-04-25T12:32:23.928Z,100202.13
2019-04-25T12:34:53.688Z,100203.60
2019-04-25T12:37:25.056Z,100207.88
2019-04-25T12:39:55.958Z,100217.64
2019-04-25T12:42:25.224Z,100210.28
2019-04-25T12:44:59.110Z,100209.09
2019-04-25T12:47:38.752Z,100212.98
2019-04-25T12:50:08.726Z,100218.68
2019-04-25T12:52:37.986Z,100215.80
2019-04-25T12:55:07.704Z,100223.58
2019-04-25T12:57:36.941Z,100232.82
2019-04-25T13:00:07.333Z,100238.83
2019-04-25T13:02:36.712Z,100249.94
2019-04-25T13:05:07.126Z,100253.89
2019-04-25T13:07:36.497Z,100271.05
2019-04-25T13:10:07.427Z,100272.88
2019-04-25T13:12:36.695Z,100286.16
2019-04-25T13:15:06.832Z,100296.31
2019-04-25T13:17:36.119Z,100304.34
2019-04-25T13:20:07.797Z,100298.16
2019-04-25T13:22:37.184Z,100303.19
2019-04-25T13:25:08.426Z,100299.00
2019-04-25T13:27:58.530Z,100294.56
2019-04-25T13:30:35.515Z,100306.67
2019-04-25T13:33:23.595Z,100320.69
2019-04-25T13:35:59.956Z,100314.92
2019-04-25T13:38:29.209Z,100325.30
2019-04-25T13:40:59.247Z,100321.19
2019-04-25T13:43:28.630Z,100330.83
2019-04-25T13:45:58.033Z,100336.88
2019-04-25T13:48:28.011Z,100338.64
2019-04-25T13:50:57.439Z,100343.12
2019-04-25T13:53:27.385Z,100343.41
2019-04-25T13:55:57.883Z,100345.53
2019-04-25T13:58:30.512Z,100346.88
2019-04-25T14:00:58.894Z,100347.52
2019-04-25T14:03:28.164Z,100358.29
2019-04-25T14:05:57.341Z,100354.78
2019-04-25T14:08:26.997Z,100351.62
2019-04-25T14:10:56.322Z,100344.93
2019-04-25T14:13:26.519Z,100342.02
2019-04-25T14:15:59.976Z,100345.07
2019-04-25T14:18:45.915Z,100338.20
2019-04-25T14:21:16.876Z,100331.16
2019-04-25T14:23:46.105Z,100324.59
2019-04-25T14:26:15.467Z,100335.97
2019-04-25T14:28:44.704Z,100326.68
2019-04-25T14:31:30.568Z,100326.76
2019-04-25T14:33:47.689Z,100327.75
2019-04-25T14:36:17.015Z,100345.22
2019-04-25T14:38:46.260Z,100342.20
2019-04-25T14:41:15.600Z,100351.24
2019-04-25T14:43:46.427Z,100351.20
2019-04-25T14:46:15.795Z,100347.05
2019-04-25T14:48:45.063Z,100346.17
2019-04-25T14:51:14.394Z,100351.73
2019-04-25T14:53:43.624Z,100350.49
2019-04-25T14:56:30.300Z,100355.94
2019-04-25T14:59:00.490Z,100349.94
2019-04-25T15:01:30.162Z,100361.03
2019-04-25T15:03:59.640Z,100371.09
2019-04-25T15:06:29.747Z,100364.65
2019-04-25T15:08:58.909Z,100367.48
2019-04-25T15:11:29.066Z,100382.99
2019-04-25T15:13:58.309Z,100371.60
2019-04-25T15:16:27.590Z,100371.08
2019-04-25T15:18:56.869Z,100379.52
2019-04-25T15:21:26.266Z,100368.25
2019-04-25T15:24:00.348Z,100374.00
2019-04-25T15:26:26.864Z,100371.58
2019-04-25T15:28:56.087Z,100365.59
2019-04-25T15:31:25.687Z,100351.77
2019-04-25T15:33:54.878Z,100344.52
2019-04-25T15:36:35.617Z,100352.48
2019-04-25T15:39:20.978Z,100360.75
2019-04-25T15:42:06.329Z,100351.33
2019-04-25T15:44:36.439Z,100343.38
2019-04-25T15:47:07.318Z,100351.97
2019-04-25T15:49:37.001Z,100364.73
2019-04-25T15:52:06.925Z,100365.23
2019-04-25T15:54:36.149Z,100364.62
2019-04-25T15:57:06.219Z,100363.83
2019-04-25T15:59:35.515Z,100355.72
2019-04-25T16:02:08.302Z,100344.31
2019-04-25T16:04:37.462Z,100350.48
2019-04-25T16:07:07.241Z,100386.04
2019-04-25T16:09:36.733Z,100385.56
2019-04-25T16:12:06.020Z,100385.64
2019-04-25T16:14:35.605Z,100378.91
2019-04-25T16:17:04.835Z,100367.38
2019-04-25T16:19:34.755Z,100359.41
2019-04-25T16:22:04.811Z,100365.12
2019-04-25T16:24:34.407Z,100370.29
2019-04-25T16:27:04.697Z,100382.94
2019-04-25T16:29:33.892Z,100383.16
2019-04-25T16:32:04.843Z,100397.80
2019-04-25T16:34:34.243Z,100414.52
2019-04-25T16:37:03.563Z,100422.45
2019-04-25T16:39:35.148Z,100429.41
2019-04-25T16:42:04.484Z,100436.75
2019-04-25T16:44:34.003Z,100417.14
2019-04-25T16:47:03.530Z,100414.47
2019-04-25T16:49:32.777Z,100419.42
2019-04-25T16:52:02.203Z,100421.02
2019-04-25T16:54:31.615Z,100429.30
2019-04-25T16:57:00.910Z,100442.72
2019-04-25T16:59:30.144Z,100449.97
2019-04-25T17:01:59.477Z,100456.48
2019-04-25T17:04:29.785Z,100456.81
2019-04-25T17:06:59.347Z,100449.89
2019-04-25T17:09:30.348Z,100449.74
2019-04-25T17:11:59.762Z,100443.66
2019-04-25T17:14:48.719Z,100453.16
2019-04-25T17:17:19.746Z,100453.26
2019-04-25T17:19:53.174Z,100453.78
2019-04-25T17:22:23.198Z,100457.69
2019-04-25T17:24:52.406Z,100466.20
2019-04-25T17:27:22.384Z,100471.62
2019-04-25T17:29:51.715Z,100471.28
2019-04-25T17:32:48.444Z,100471.95
2019-04-25T17:35:10.490Z,100476.42
2019-04-25T17:37:47.376Z,100474.16
2019-04-25T17:40:21.169Z,100480.96
2019-04-25T17:42:50.487Z,100477.98
2019-04-25T17:45:23.971Z,100482.48
2019-04-25T17:47:54.987Z,100483.87
2019-04-25T17:50:24.189Z,100494.05
2019-04-25T17:52:53.413Z,100480.39
2019-04-25T17:55:22.768Z,100480.91
2019-04-25T17:57:51.925Z,100480.08
2019-04-25T18:00:26.073Z,100492.11
2019-04-25T18:02:58.865Z,100507.16
2019-04-25T18:05:26.259Z,100512.44
2019-04-25T18:07:55.468Z,100511.03
2019-04-25T18:10:24.815Z,100508.36
2019-04-25T18:12:54.229Z,100518.00
2019-04-25T18:15:31.360Z,100513.16
2019-04-25T18:18:02.195Z,100519.14
2019-04-25T18:20:36.737Z,100527.88
2019-04-25T18:23:10.513Z,100528.28
2019-04-25T18:25:57.905Z,100526.08
2019-04-25T18:28:37.798Z,100524.67
2019-04-25T18:31:07.969Z,100537.16
2019-04-25T18:33:37.324Z,100545.37
2019-04-25T18:36:24.708Z,100564.92
2019-04-25T18:39:05.008Z,100563.04
2019-04-25T18:41:36.399Z,100564.72
2019-04-25T18:44:10.467Z,100573.47
2019-04-25T18:46:41.321Z,100582.73
2019-04-25T18:49:10.500Z,100579.72
2019-04-25T18:51:40.624Z,100582.26
2019-04-25T18:54:17.291Z,100582.42
2019-04-25T18:56:50.826Z,100582.89
2019-04-25T18:59:24.756Z,100577.50
2019-04-25T19:02:01.406Z,100577.01
2019-04-25T19:04:41.809Z,100575.63
2019-04-25T19:07:22.040Z,100580.09
2019-04-25T19:09:42.882Z,100577.30
2019-04-25T19:12:12.317Z,100590.90
2019-04-25T19:14:43.104Z,100590.90
2019-04-25T19:17:12.378Z,100596.94
2019-04-25T19:19:41.649Z,100585.87
2019-04-25T19:22:10.909Z,100608.32
2019-04-25T19:24:43.581Z,100608.32
2019-04-25T19:27:23.009Z,100605.48
2019-04-25T19:29:41.956Z,100605.48
2019-04-25T19:32:11.173Z,100602.02
2019-04-25T19:34:41.242Z,100603.55
2019-04-25T19:37:10.845Z,100605.73
2019-04-25T19:39:42.784Z,100608.91
2019-04-25T19:42:19.518Z,100590.94
2019-04-25T19:44:49.220Z,100590.94
2019-04-25T19:47:20.766Z,100601.72
2019-04-25T19:49:50.030Z,100605.44
2019-04-25T19:52:19.277Z,100620.09
2019-04-25T19:54:49.437Z,100620.59
2019-04-25T19:57:18.658Z,100593.92
2019-04-25T19:59:48.467Z,100593.92
2019-04-25T20:02:22.114Z,100589.25
2019-04-25T20:04:56.091Z,100595.95
2019-04-25T20:07:33.160Z,100611.80
2019-04-25T20:10:07.068Z,100606.28
2019-04-25T20:12:38.010Z,100606.28
2019-04-25T20:15:08.664Z,100601.56
2019-04-25T20:17:37.876Z,100589.64
2019-04-25T20:20:07.561Z,100607.33
2019-04-25T20:22:36.840Z,100607.33
2019-04-25T20:25:07.142Z,100612.28
2019-04-25T20:27:36.374Z,100612.28
2019-04-25T20:30:07.135Z,100590.31
2019-04-25T20:32:36.426Z,100590.31
2019-04-25T20:35:05.884Z,100601.76
2019-04-25T20:37:35.130Z,100601.76
2019-04-25T20:40:05.887Z,100606.47
2019-04-25T20:42:35.240Z,100612.89
2019-04-25T20:45:07.014Z,100612.89
2019-04-25T20:47:36.373Z,100575.39
2019-04-25T20:50:06.641Z,100575.39
2019-04-25T20:52:38.044Z,100606.18
2019-04-25T20:55:08.112Z,100613.35
2019-04-25T20:57:37.387Z,100605.22
2019-04-25T21:00:08.530Z,100594.28
2019-04-25T21:02:37.757Z,100590.17
2019-04-25T21:05:07.508Z,100580.32
2019-04-25T21:07:36.769Z,100579.19
2019-04-25T21:10:07.398Z,100576.97
2019-04-25T21:12:36.742Z,100569.92
2019-04-25T21:15:15.386Z,100572.02
2019-04-25T21:17:56.303Z,100572.59
2019-04-25T21:20:25.605Z,100572.59
2019-04-25T21:22:55.821Z,100585.90
2019-04-25T21:25:25.145Z,100596.86
2019-04-25T21:27:54.517Z,100617.80
2019-04-25T21:30:23.833Z,100617.80
2019-04-25T21:32:55.851Z,100560.44
2019-04-25T21:35:25.789Z,100635.77
2019-04-25T21:37:55.427Z,100636.72
2019-04-25T21:40:32.392Z,100639.23
2019-04-25T21:43:10.524Z,100642.28
2019-04-25T21:45:40.122Z,100638.33
2019-04-25T21:48:09.569Z,100651.13
2019-04-25T21:50:39.224Z,100648.62
2019-04-25T21:53:08.906Z,100651.31
2019-04-25T21:55:38.436Z,100643.83
2019-04-25T21:58:08.040Z,100643.83
2019-04-25T22:00:44.663Z,100651.59
2019-04-25T22:03:15.937Z,100660.34
2019-04-25T22:05:45.211Z,100667.72
2019-04-25T22:08:14.365Z,100667.72
2019-04-25T22:10:43.767Z,100669.64
2019-04-25T22:13:17.079Z,100672.05
2019-04-25T22:16:02.169Z,100673.80
2019-04-25T22:18:33.262Z,100682.05
2019-04-25T22:21:02.639Z,100682.05
2019-04-25T22:23:31.895Z,100682.05
2019-04-25T22:26:01.417Z,100682.60
2019-04-25T22:28:31.241Z,100685.11
2019-04-25T22:31:08.144Z,100681.97
2019-04-25T22:33:42.836Z,100689.34
2019-04-25T22:36:13.812Z,100687.78
2019-04-25T22:38:43.045Z,100674.91
2019-04-25T22:41:12.333Z,100664.75
2019-04-25T22:43:43.451Z,100671.86
2019-04-25T22:46:25.276Z,100660.73
2019-04-25T22:48:48.650Z,100658.98
2019-04-25T22:51:18.049Z,100657.27
2019-04-25T22:53:47.996Z,100659.75
2019-04-25T22:56:17.252Z,100665.91
2019-04-25T22:58:46.715Z,100671.28
2019-04-25T23:01:34.030Z,100691.31
2019-04-25T23:04:10.622Z,100691.31
2019-04-25T23:06:40.790Z,100693.16
2019-04-25T23:09:10.232Z,100702.16
2019-04-25T23:11:39.474Z,100717.63
2019-04-25T23:14:08.924Z,100728.44
2019-04-25T23:16:38.922Z,100728.44
2019-04-25T23:19:08.252Z,100735.75
2019-04-25T23:21:38.428Z,100741.11
2019-04-25T23:24:08.044Z,100741.11
2019-04-25T23:26:39.322Z,100740.93
2019-04-25T23:29:10.231Z,100751.66
2019-04-25T23:31:41.078Z,100757.63
2019-04-25T23:34:10.872Z,100745.49
2019-04-25T23:36:40.253Z,100745.09
2019-04-25T23:39:11.241Z,100745.97
2019-04-25T23:41:40.678Z,100734.78
2019-04-25T23:44:10.108Z,100716.19
2019-04-25T23:46:39.831Z,100713.94
2019-04-25T23:49:09.059Z,100731.57
2019-04-25T23:51:38.314Z,100736.20
2019-04-25T23:54:07.646Z,100745.77
2019-04-25T23:56:38.014Z,100751.25
2019-04-25T23:59:08.854Z,100751.47
